Geldermalsen, Netherlands
Current Conditions -  °F | °C
As of 2:55 PM on Wednesday 26 Nov 2014 (Local Time) from EHVK Reporting Station
Overcast Overcast  
Wind Chill: 37°   Ceiling: 9200
Heat Index: 43°   Visibility: 6mi
Dew Point: 37°   Wind: 12mph
Humidity: 81%   Direction: 110°ESE
Pressure: 29.91"   Gusts: NA
Location:  51.88°N, 5.29°E
Report Text: EHVK 261355Z AUTO 11010KT 9999 SCT077 OVC092 06/03 Q1013 BLU 11011KT CAVOK BECMG BKN019 BKN080
Loading
Personal Weather Stations






























Interactive Weather Map New forecast layout! Learn more

10-Day Weather Forecast

Advertisements
Track Severe Weather on mobile